sensor_id;sensor_type;location;lat;lon;timestamp;temperature;humidity
5476;DHT22;2760;50.000;9.194;2023-02-07T00:00:49;2.50;99.90
5476;DHT22;2760;50.000;9.194;2023-02-07T00:03:16;2.40;99.90
5476;DHT22;2760;50.000;9.194;2023-02-07T00:05:43;2.60;99.90
5476;DHT22;2760;50.000;9.194;2023-02-07T00:08:10;2.50;99.90
5476;DHT22;2760;50.000;9.194;2023-02-07T00:13:07;2.60;99.90
5476;DHT22;2760;50.000;9.194;2023-02-07T00:15:34;2.60;99.90
5476;DHT22;2760;50.000;9.194;2023-02-07T00:18:02;2.50;99.90
5476;DHT22;2760;50.000;9.194;2023-02-07T00:20:29;5.00;99.90
5476;DHT22;2760;50.000;9.194;2023-02-07T00:22:56;2.50;99.90
5476;DHT22;2760;50.000;9.194;2023-02-07T00:25:23;2.50;99.90
5476;DHT22;2760;50.000;9.194;2023-02-07T00:27:50;4.10;99.90
5476;DHT22;2760;50.000;9.194;2023-02-07T00:30:18;2.60;99.90
5476;DHT22;2760;50.000;9.194;2023-02-07T00:32:45;2.60;99.90
5476;DHT22;2760;50.000;9.194;2023-02-07T00:35:13;2.60;99.90
5476;DHT22;2760;50.000;9.194;2023-02-07T00:37:40;2.60;99.90
5476;DHT22;2760;50.000;9.194;2023-02-07T00:40:08;2.60;99.90
5476;DHT22;2760;50.000;9.194;2023-02-07T00:42:35;2.50;99.90
5476;DHT22;2760;50.000;9.194;2023-02-07T00:45:02;2.60;99.90
5476;DHT22;2760;50.000;9.194;2023-02-07T00:47:30;3.00;99.90
5476;DHT22;2760;50.000;9.194;2023-02-07T00:49:57;2.60;99.90
5476;DHT22;2760;50.000;9.194;2023-02-07T00:52:25;2.60;99.90
5476;DHT22;2760;50.000;9.194;2023-02-07T00:54:52;3.40;99.90
5476;DHT22;2760;50.000;9.194;2023-02-07T00:57:19;2.60;99.90
5476;DHT22;2760;50.000;9.194;2023-02-07T00:59:46;2.60;99.90
5476;DHT22;2760;50.000;9.194;2023-02-07T01:02:13;4.70;99.90
5476;DHT22;2760;50.000;9.194;2023-02-07T01:04:42;2.50;99.90
5476;DHT22;2760;50.000;9.194;2023-02-07T01:07:09;3.70;99.90
5476;DHT22;2760;50.000;9.194;2023-02-07T01:09:38;2.60;99.90
5476;DHT22;2760;50.000;9.194;2023-02-07T01:12:05;2.50;99.90
5476;DHT22;2760;50.000;9.194;2023-02-07T01:14:32;2.50;99.90
5476;DHT22;2760;50.000;9.194;2023-02-07T01:16:59;2.40;99.90
5476;DHT22;2760;50.000;9.194;2023-02-07T01:19:26;2.30;99.90
5476;DHT22;2760;50.000;9.194;2023-02-07T01:21:57;4.00;99.90
5476;DHT22;2760;50.000;9.194;2023-02-07T01:24:24;2.40;99.90
5476;DHT22;2760;50.000;9.194;2023-02-07T01:26:53;2.30;99.90
5476;DHT22;2760;50.000;9.194;2023-02-07T01:29:20;2.20;99.90
5476;DHT22;2760;50.000;9.194;2023-02-07T01:31:47;1.70;99.90
5476;DHT22;2760;50.000;9.194;2023-02-07T01:34:14;2.10;99.90
5476;DHT22;2760;50.000;9.194;2023-02-07T01:36:41;2.10;99.90
5476;DHT22;2760;50.000;9.194;2023-02-07T01:39:08;4.20;99.90
5476;DHT22;2760;50.000;9.194;2023-02-07T01:41:36;1.90;99.90
5476;DHT22;2760;50.000;9.194;2023-02-07T01:44:07;1.90;99.90
5476;DHT22;2760;50.000;9.194;2023-02-07T01:46:35;1.90;99.90
5476;DHT22;2760;50.000;9.194;2023-02-07T01:49:06;1.90;99.90
5476;DHT22;2760;50.000;9.194;2023-02-07T01:51:34;0.70;99.90
5476;DHT22;2760;50.000;9.194;2023-02-07T01:54:05;1.80;99.90
5476;DHT22;2760;50.000;9.194;2023-02-07T01:56:35;3.30;99.90
5476;DHT22;2760;50.000;9.194;2023-02-07T01:59:05;1.70;99.90
5476;DHT22;2760;50.000;9.194;2023-02-07T02:01:35;1.80;99.90
5476;DHT22;2760;50.000;9.194;2023-02-07T02:04:03;2.30;99.90
5476;DHT22;2760;50.000;9.194;2023-02-07T02:06:32;1.70;99.90
5476;DHT22;2760;50.000;9.194;2023-02-07T02:09:01;3.10;99.90
5476;DHT22;2760;50.000;9.194;2023-02-07T02:14:33;1.70;99.90
5476;DHT22;2760;50.000;9.194;2023-02-07T02:17:08;1.60;99.90
5476;DHT22;2760;50.000;9.194;2023-02-07T02:22:57;1.60;99.90
5476;DHT22;2760;50.000;9.194;2023-02-07T02:25:57;1.50;99.90
5476;DHT22;2760;50.000;9.194;2023-02-07T02:29:06;1.50;99.90
5476;DHT22;2760;50.000;9.194;2023-02-07T02:34:43;1.50;99.90
5476;DHT22;2760;50.000;9.194;2023-02-07T02:37:18;1.40;99.90
5476;DHT22;2760;50.000;9.194;2023-02-07T02:39:53;2.90;99.90
5476;DHT22;2760;50.000;9.194;2023-02-07T02:42:25;2.90;99.90
5476;DHT22;2760;50.000;9.194;2023-02-07T02:44:57;3.80;99.90
5476;DHT22;2760;50.000;9.194;2023-02-07T02:47:27;3.70;99.90
5476;DHT22;2760;50.000;9.194;2023-02-07T02:49:56;1.30;99.90
5476;DHT22;2760;50.000;9.194;2023-02-07T02:52:25;3.30;99.90
5476;DHT22;2760;50.000;9.194;2023-02-07T02:54:52;1.20;99.90
5476;DHT22;2760;50.000;9.194;2023-02-07T02:57:48;2.60;99.90
5476;DHT22;2760;50.000;9.194;2023-02-07T03:00:35;3.60;99.90
5476;DHT22;2760;50.000;9.194;2023-02-07T03:03:21;1.90;99.90
5476;DHT22;2760;50.000;9.194;2023-02-07T03:06:02;3.20;99.90
5476;DHT22;2760;50.000;9.194;2023-02-07T03:08:38;1.40;99.90
5476;DHT22;2760;50.000;9.194;2023-02-07T03:11:09;1.00;99.90
5476;DHT22;2760;50.000;9.194;2023-02-07T03:13:47;1.10;99.90
5476;DHT22;2760;50.000;9.194;2023-02-07T03:16:20;3.30;99.90
5476;DHT22;2760;50.000;9.194;2023-02-07T03:18:53;2.80;99.90
5476;DHT22;2760;50.000;9.194;2023-02-07T03:21:26;3.30;99.90
5476;DHT22;2760;50.000;9.194;2023-02-07T03:23:57;0.80;99.90
5476;DHT22;2760;50.000;9.194;2023-02-07T03:26:27;0.90;99.90
5476;DHT22;2760;50.000;9.194;2023-02-07T03:28:55;1.00;99.90
5476;DHT22;2760;50.000;9.194;2023-02-07T03:31:25;0.90;99.90
5476;DHT22;2760;50.000;9.194;2023-02-07T03:34:02;0.90;99.90
5476;DHT22;2760;50.000;9.194;2023-02-07T03:36:38;0.90;99.90
5476;DHT22;2760;50.000;9.194;2023-02-07T03:39:05;0.90;99.90
5476;DHT22;2760;50.000;9.194;2023-02-07T03:41:38;3.10;99.90
5476;DHT22;2760;50.000;9.194;2023-02-07T03:44:08;3.00;99.90
5476;DHT22;2760;50.000;9.194;2023-02-07T03:46:36;3.10;99.90
5476;DHT22;2760;50.000;9.194;2023-02-07T03:49:04;0.80;99.90
5476;DHT22;2760;50.000;9.194;2023-02-07T03:51:33;2.90;99.90
5476;DHT22;2760;50.000;9.194;2023-02-07T03:54:00;0.70;99.90
5476;DHT22;2760;50.000;9.194;2023-02-07T03:56:28;0.50;99.90
5476;DHT22;2760;50.000;9.194;2023-02-07T03:58:55;1.30;99.90
5476;DHT22;2760;50.000;9.194;2023-02-07T04:01:24;0.60;99.90
5476;DHT22;2760;50.000;9.194;2023-02-07T04:03:52;0.60;99.90
5476;DHT22;2760;50.000;9.194;2023-02-07T04:06:19;1.90;99.90
5476;DHT22;2760;50.000;9.194;2023-02-07T04:08:48;2.90;99.90
5476;DHT22;2760;50.000;9.194;2023-02-07T04:11:15;0.40;99.90
5476;DHT22;2760;50.000;9.194;2023-02-07T04:13:42;0.50;99.90
5476;DHT22;2760;50.000;9.194;2023-02-07T04:16:08;0.50;99.90
5476;DHT22;2760;50.000;9.194;2023-02-07T04:18:36;0.50;99.90
5476;DHT22;2760;50.000;9.194;2023-02-07T04:21:05;0.50;99.90
5476;DHT22;2760;50.000;9.194;2023-02-07T04:23:32;0.50;99.90
5476;DHT22;2760;50.000;9.194;2023-02-07T04:26:01;3.00;99.90
5476;DHT22;2760;50.000;9.194;2023-02-07T04:28:28;0.40;99.90
5476;DHT22;2760;50.000;9.194;2023-02-07T04:30:55;2.60;99.90
5476;DHT22;2760;50.000;9.194;2023-02-07T04:33:22;2.00;99.90
5476;DHT22;2760;50.000;9.194;2023-02-07T04:35:53;0.30;99.90
5476;DHT22;2760;50.000;9.194;2023-02-07T04:38:22;2.70;99.90
5476;DHT22;2760;50.000;9.194;2023-02-07T04:40:49;2.80;99.90
5476;DHT22;2760;50.000;9.194;2023-02-07T04:43:18;0.30;99.90
5476;DHT22;2760;50.000;9.194;2023-02-07T04:45:45;0.30;99.90
5476;DHT22;2760;50.000;9.194;2023-02-07T04:48:13;2.50;99.90
5476;DHT22;2760;50.000;9.194;2023-02-07T04:50:40;1.90;99.90
5476;DHT22;2760;50.000;9.194;2023-02-07T04:53:08;0.10;99.90
5476;DHT22;2760;50.000;9.194;2023-02-07T04:55:35;2.50;99.90
5476;DHT22;2760;50.000;9.194;2023-02-07T04:58:02;0.00;99.90
5476;DHT22;2760;50.000;9.194;2023-02-07T05:00:30;0.00;99.90
5476;DHT22;2760;50.000;9.194;2023-02-07T05:02:58;2.40;99.90
5476;DHT22;2760;50.000;9.194;2023-02-07T05:05:25;2.30;99.90
5476;DHT22;2760;50.000;9.194;2023-02-07T05:07:53;1.90;99.90
5476;DHT22;2760;50.000;9.194;2023-02-07T05:10:20;1.30;99.90
5476;DHT22;2760;50.000;9.194;2023-02-07T05:12:47;-0.30;99.90
5476;DHT22;2760;50.000;9.194;2023-02-07T05:15:14;-0.20;99.90
5476;DHT22;2760;50.000;9.194;2023-02-07T05:17:42;-0.30;99.90
5476;DHT22;2760;50.000;9.194;2023-02-07T05:20:10;-0.20;99.90
5476;DHT22;2760;50.000;9.194;2023-02-07T05:22:37;-0.20;99.90
5476;DHT22;2760;50.000;9.194;2023-02-07T05:25:04;1.80;99.90
5476;DHT22;2760;50.000;9.194;2023-02-07T05:27:32;0.00;99.90
5476;DHT22;2760;50.000;9.194;2023-02-07T05:30:03;-0.20;99.90
5476;DHT22;2760;50.000;9.194;2023-02-07T05:32:30;-0.20;99.90
5476;DHT22;2760;50.000;9.194;2023-02-07T05:35:17;-0.30;99.90
5476;DHT22;2760;50.000;9.194;2023-02-07T05:37:44;-0.40;99.90
5476;DHT22;2760;50.000;9.194;2023-02-07T05:42:38;-0.30;99.90
5476;DHT22;2760;50.000;9.194;2023-02-07T05:45:06;-0.30;99.90
5476;DHT22;2760;50.000;9.194;2023-02-07T05:47:33;-0.20;99.90
5476;DHT22;2760;50.000;9.194;2023-02-07T05:50:00;-0.20;99.90
5476;DHT22;2760;50.000;9.194;2023-02-07T05:52:29;-0.20;99.90
5476;DHT22;2760;50.000;9.194;2023-02-07T05:54:56;0.30;99.90
5476;DHT22;2760;50.000;9.194;2023-02-07T05:57:24;-0.20;99.90
5476;DHT22;2760;50.000;9.194;2023-02-07T05:59:51;-0.20;99.90
5476;DHT22;2760;50.000;9.194;2023-02-07T06:02:18;-0.20;99.90
5476;DHT22;2760;50.000;9.194;2023-02-07T06:04:45;-0.20;99.90
5476;DHT22;2760;50.000;9.194;2023-02-07T06:07:12;-0.20;99.90
5476;DHT22;2760;50.000;9.194;2023-02-07T06:09:40;-0.20;99.90
5476;DHT22;2760;50.000;9.194;2023-02-07T06:12:07;-0.20;99.90
5476;DHT22;2760;50.000;9.194;2023-02-07T06:14:34;-0.30;99.90
5476;DHT22;2760;50.000;9.194;2023-02-07T06:17:01;0.50;99.90
5476;DHT22;2760;50.000;9.194;2023-02-07T06:19:28;1.60;99.90
5476;DHT22;2760;50.000;9.194;2023-02-07T06:21:55;1.00;99.90
5476;DHT22;2760;50.000;9.194;2023-02-07T06:24:22;1.80;99.90
5476;DHT22;2760;50.000;9.194;2023-02-07T06:26:51;-0.40;99.90
5476;DHT22;2760;50.000;9.194;2023-02-07T06:29:18;-0.30;99.90
5476;DHT22;2760;50.000;9.194;2023-02-07T06:31:45;-0.40;99.90
5476;DHT22;2760;50.000;9.194;2023-02-07T06:34:12;-0.30;99.90
5476;DHT22;2760;50.000;9.194;2023-02-07T06:36:41;1.30;99.90
5476;DHT22;2760;50.000;9.194;2023-02-07T06:39:08;-0.50;99.90
5476;DHT22;2760;50.000;9.194;2023-02-07T06:41:34;-0.40;99.90
5476;DHT22;2760;50.000;9.194;2023-02-07T06:44:03;-0.40;99.90
5476;DHT22;2760;50.000;9.194;2023-02-07T06:46:31;-0.40;99.90
5476;DHT22;2760;50.000;9.194;2023-02-07T06:48:58;-0.50;99.90
5476;DHT22;2760;50.000;9.194;2023-02-07T06:51:25;-0.50;99.90
5476;DHT22;2760;50.000;9.194;2023-02-07T06:53:52;-0.60;99.90
5476;DHT22;2760;50.000;9.194;2023-02-07T06:56:19;-0.60;99.90
5476;DHT22;2760;50.000;9.194;2023-02-07T07:01:15;-0.60;99.90
5476;DHT22;2760;50.000;9.194;2023-02-07T07:06:12;-0.50;99.90
5476;DHT22;2760;50.000;9.194;2023-02-07T07:08:39;-0.50;99.90
5476;DHT22;2760;50.000;9.194;2023-02-07T07:11:06;-0.50;99.90
5476;DHT22;2760;50.000;9.194;2023-02-07T07:13:33;-0.50;99.90
5476;DHT22;2760;50.000;9.194;2023-02-07T07:16:00;-0.50;99.90
5476;DHT22;2760;50.000;9.194;2023-02-07T07:18:29;-0.60;99.90
5476;DHT22;2760;50.000;9.194;2023-02-07T07:20:56;-0.60;99.90
5476;DHT22;2760;50.000;9.194;2023-02-07T07:23:24;-0.60;99.90
5476;DHT22;2760;50.000;9.194;2023-02-07T07:25:51;-0.60;99.90
5476;DHT22;2760;50.000;9.194;2023-02-07T07:30:46;-0.60;99.90
5476;DHT22;2760;50.000;9.194;2023-02-07T07:33:14;-0.60;99.90
5476;DHT22;2760;50.000;9.194;2023-02-07T07:35:45;-0.50;99.90
5476;DHT22;2760;50.000;9.194;2023-02-07T07:38:12;-0.50;99.90
5476;DHT22;2760;50.000;9.194;2023-02-07T07:40:44;-0.50;99.90
5476;DHT22;2760;50.000;9.194;2023-02-07T07:43:11;-0.40;99.90
5476;DHT22;2760;50.000;9.194;2023-02-07T07:45:51;-0.40;99.90
5476;DHT22;2760;50.000;9.194;2023-02-07T07:48:18;-0.50;99.90
5476;DHT22;2760;50.000;9.194;2023-02-07T07:50:51;-0.40;99.90
5476;DHT22;2760;50.000;9.194;2023-02-07T07:53:19;-0.40;99.90
5476;DHT22;2760;50.000;9.194;2023-02-07T07:55:50;-0.40;99.90
5476;DHT22;2760;50.000;9.194;2023-02-07T07:58:18;-0.20;99.90
5476;DHT22;2760;50.000;9.194;2023-02-07T08:00:49;-0.20;99.90
5476;DHT22;2760;50.000;9.194;2023-02-07T08:03:18;-4.00;99.90
5476;DHT22;2760;50.000;9.194;2023-02-07T08:05:46;-0.20;99.90
5476;DHT22;2760;50.000;9.194;2023-02-07T08:08:15;-0.20;99.90
5476;DHT22;2760;50.000;9.194;2023-02-07T08:10:47;-0.20;99.90
5476;DHT22;2760;50.000;9.194;2023-02-07T08:13:18;-0.10;99.90
5476;DHT22;2760;50.000;9.194;2023-02-07T08:15:45;-0.10;99.90
5476;DHT22;2760;50.000;9.194;2023-02-07T08:18:12;0.00;99.90
5476;DHT22;2760;50.000;9.194;2023-02-07T08:20:42;0.00;99.90
5476;DHT22;2760;50.000;9.194;2023-02-07T08:23:09;-0.10;99.90
5476;DHT22;2760;50.000;9.194;2023-02-07T08:25:38;-0.10;99.90
5476;DHT22;2760;50.000;9.194;2023-02-07T08:28:06;0.00;99.90
5476;DHT22;2760;50.000;9.194;2023-02-07T08:30:33;0.10;99.90
5476;DHT22;2760;50.000;9.194;2023-02-07T08:33:00;0.20;99.90
5476;DHT22;2760;50.000;9.194;2023-02-07T08:35:27;0.20;99.90
5476;DHT22;2760;50.000;9.194;2023-02-07T08:37:55;0.30;99.90
5476;DHT22;2760;50.000;9.194;2023-02-07T08:40:24;0.20;99.90
5476;DHT22;2760;50.000;9.194;2023-02-07T08:42:52;0.30;99.90
5476;DHT22;2760;50.000;9.194;2023-02-07T08:47:47;0.40;99.90
5476;DHT22;2760;50.000;9.194;2023-02-07T08:50:15;1.30;99.90
5476;DHT22;2760;50.000;9.194;2023-02-07T08:52:43;0.30;99.90
5476;DHT22;2760;50.000;9.194;2023-02-07T08:55:11;1.90;99.90
5476;DHT22;2760;50.000;9.194;2023-02-07T08:57:38;0.50;99.90
5476;DHT22;2760;50.000;9.194;2023-02-07T09:00:09;0.50;99.90
5476;DHT22;2760;50.000;9.194;2023-02-07T09:02:36;0.50;99.90
5476;DHT22;2760;50.000;9.194;2023-02-07T09:05:03;0.60;99.90
5476;DHT22;2760;50.000;9.194;2023-02-07T09:07:30;0.70;99.90
5476;DHT22;2760;50.000;9.194;2023-02-07T09:09:57;0.80;99.90
5476;DHT22;2760;50.000;9.194;2023-02-07T09:12:25;0.70;99.90
5476;DHT22;2760;50.000;9.194;2023-02-07T09:14:52;0.70;99.90
5476;DHT22;2760;50.000;9.194;2023-02-07T09:17:20;0.80;99.90
5476;DHT22;2760;50.000;9.194;2023-02-07T09:19:50;0.80;99.90
5476;DHT22;2760;50.000;9.194;2023-02-07T09:22:17;0.80;99.90
5476;DHT22;2760;50.000;9.194;2023-02-07T09:24:46;0.80;99.90
5476;DHT22;2760;50.000;9.194;2023-02-07T09:29:41;0.90;99.90
5476;DHT22;2760;50.000;9.194;2023-02-07T09:32:13;1.00;99.90
5476;DHT22;2760;50.000;9.194;2023-02-07T09:34:42;1.00;99.90
5476;DHT22;2760;50.000;9.194;2023-02-07T09:37:12;2.10;99.90
5476;DHT22;2760;50.000;9.194;2023-02-07T09:39:39;1.10;99.90
5476;DHT22;2760;50.000;9.194;2023-02-07T09:42:17;1.20;99.90
5476;DHT22;2760;50.000;9.194;2023-02-07T09:44:54;1.30;99.90
5476;DHT22;2760;50.000;9.194;2023-02-07T09:47:24;0.50;99.90
5476;DHT22;2760;50.000;9.194;2023-02-07T09:49:56;1.40;99.90
5476;DHT22;2760;50.000;9.194;2023-02-07T09:52:28;1.50;99.90
5476;DHT22;2760;50.000;9.194;2023-02-07T09:54:56;2.90;99.90
5476;DHT22;2760;50.000;9.194;2023-02-07T09:57:29;1.50;99.90
5476;DHT22;2760;50.000;9.194;2023-02-07T10:00:05;1.70;99.90
5476;DHT22;2760;50.000;9.194;2023-02-07T10:02:37;2.00;99.90
5476;DHT22;2760;50.000;9.194;2023-02-07T10:05:14;2.60;99.70
5476;DHT22;2760;50.000;9.194;2023-02-07T10:07:43;2.60;99.00
5476;DHT22;2760;50.000;9.194;2023-02-07T10:10:14;2.50;98.90
5476;DHT22;2760;50.000;9.194;2023-02-07T10:13:19;2.70;98.80
5476;DHT22;2760;50.000;9.194;2023-02-07T10:15:55;2.90;98.70
5476;DHT22;2760;50.000;9.194;2023-02-07T10:18:37;3.10;99.00
5476;DHT22;2760;50.000;9.194;2023-02-07T10:21:14;3.70;97.20
5476;DHT22;2760;50.000;9.194;2023-02-07T10:23:59;3.90;97.60
5476;DHT22;2760;50.000;9.194;2023-02-07T10:26:35;4.00;97.60
5476;DHT22;2760;50.000;9.194;2023-02-07T10:29:15;4.60;96.40
5476;DHT22;2760;50.000;9.194;2023-02-07T10:31:47;4.70;96.10
5476;DHT22;2760;50.000;9.194;2023-02-07T10:34:20;4.70;96.50
5476;DHT22;2760;50.000;9.194;2023-02-07T10:36:50;4.60;96.50
5476;DHT22;2760;50.000;9.194;2023-02-07T10:39:23;3.90;97.20
5476;DHT22;2760;50.000;9.194;2023-02-07T10:41:54;4.00;96.80
5476;DHT22;2760;50.000;9.194;2023-02-07T10:44:22;5.00;96.60
5476;DHT22;2760;50.000;9.194;2023-02-07T10:46:54;4.50;95.90
5476;DHT22;2760;50.000;9.194;2023-02-07T10:49:26;5.10;95.70
5476;DHT22;2760;50.000;9.194;2023-02-07T10:51:56;5.00;94.80
5476;DHT22;2760;50.000;9.194;2023-02-07T10:54:25;5.80;94.40
5476;DHT22;2760;50.000;9.194;2023-02-07T10:56:54;5.80;94.80
5476;DHT22;2760;50.000;9.194;2023-02-07T10:59:40;6.70;93.50
5476;DHT22;2760;50.000;9.194;2023-02-07T11:02:34;7.70;92.20
5476;DHT22;2760;50.000;9.194;2023-02-07T11:05:04;7.80;92.00
5476;DHT22;2760;50.000;9.194;2023-02-07T11:07:33;8.80;92.80
5476;DHT22;2760;50.000;9.194;2023-02-07T11:10:15;6.50;91.70
5476;DHT22;2760;50.000;9.194;2023-02-07T11:12:47;6.10;92.90
5476;DHT22;2760;50.000;9.194;2023-02-07T11:15:17;5.60;92.40
5476;DHT22;2760;50.000;9.194;2023-02-07T11:17:48;5.50;92.70
5476;DHT22;2760;50.000;9.194;2023-02-07T11:20:20;6.60;92.50
5476;DHT22;2760;50.000;9.194;2023-02-07T11:22:52;6.70;90.80
5476;DHT22;2760;50.000;9.194;2023-02-07T11:25:26;6.60;90.90
5476;DHT22;2760;50.000;9.194;2023-02-07T11:27:54;6.80;90.50
5476;DHT22;2760;50.000;9.194;2023-02-07T11:30:22;4.80;89.70
5476;DHT22;2760;50.000;9.194;2023-02-07T11:32:56;7.20;90.10
5476;DHT22;2760;50.000;9.194;2023-02-07T11:35:25;8.30;90.90
5476;DHT22;2760;50.000;9.194;2023-02-07T11:38:02;9.50;89.60
5476;DHT22;2760;50.000;9.194;2023-02-07T11:40:35;9.30;90.40
5476;DHT22;2760;50.000;9.194;2023-02-07T11:43:09;7.70;88.00
5476;DHT22;2760;50.000;9.194;2023-02-07T11:45:49;9.00;87.00
5476;DHT22;2760;50.000;9.194;2023-02-07T11:48:24;10.10;85.60
5476;DHT22;2760;50.000;9.194;2023-02-07T11:50:54;10.40;87.30
5476;DHT22;2760;50.000;9.194;2023-02-07T11:53:32;9.60;86.60
5476;DHT22;2760;50.000;9.194;2023-02-07T11:56:03;8.70;86.30
5476;DHT22;2760;50.000;9.194;2023-02-07T11:58:33;9.40;85.40
5476;DHT22;2760;50.000;9.194;2023-02-07T12:01:04;10.70;84.40
5476;DHT22;2760;50.000;9.194;2023-02-07T12:03:33;9.00;83.60
5476;DHT22;2760;50.000;9.194;2023-02-07T12:06:14;10.80;82.40
5476;DHT22;2760;50.000;9.194;2023-02-07T12:08:44;9.60;83.50
5476;DHT22;2760;50.000;9.194;2023-02-07T12:11:14;11.50;84.70
5476;DHT22;2760;50.000;9.194;2023-02-07T12:13:46;9.30;83.00
5476;DHT22;2760;50.000;9.194;2023-02-07T12:16:18;9.70;84.20
5476;DHT22;2760;50.000;9.194;2023-02-07T12:18:52;11.80;81.40
5476;DHT22;2760;50.000;9.194;2023-02-07T12:21:25;12.80;82.30
5476;DHT22;2760;50.000;9.194;2023-02-07T12:23:58;12.90;81.00
5476;DHT22;2760;50.000;9.194;2023-02-07T12:26:29;12.90;81.50
5476;DHT22;2760;50.000;9.194;2023-02-07T12:29:14;11.60;79.10
5476;DHT22;2760;50.000;9.194;2023-02-07T12:31:56;12.20;81.40
5476;DHT22;2760;50.000;9.194;2023-02-07T12:34:28;10.30;74.00
5476;DHT22;2760;50.000;9.194;2023-02-07T12:37:00;10.40;76.00
5476;DHT22;2760;50.000;9.194;2023-02-07T12:39:33;9.00;78.20
5476;DHT22;2760;50.000;9.194;2023-02-07T12:42:17;8.60;79.00
5476;DHT22;2760;50.000;9.194;2023-02-07T12:44:50;8.90;79.90
5476;DHT22;2760;50.000;9.194;2023-02-07T12:47:26;11.40;82.90
5476;DHT22;2760;50.000;9.194;2023-02-07T12:50:07;9.80;77.90
5476;DHT22;2760;50.000;9.194;2023-02-07T12:52:44;10.10;76.10
5476;DHT22;2760;50.000;9.194;2023-02-07T12:55:25;10.50;80.30
5476;DHT22;2760;50.000;9.194;2023-02-07T12:58:02;10.00;78.30
5476;DHT22;2760;50.000;9.194;2023-02-07T13:00:44;12.40;76.50
5476;DHT22;2760;50.000;9.194;2023-02-07T13:03:22;11.00;77.20
5476;DHT22;2760;50.000;9.194;2023-02-07T13:06:03;12.70;77.20
5476;DHT22;2760;50.000;9.194;2023-02-07T13:08:41;13.00;76.90
5476;DHT22;2760;50.000;9.194;2023-02-07T13:11:22;11.00;74.90
5476;DHT22;2760;50.000;9.194;2023-02-07T13:14:00;13.10;75.70
5476;DHT22;2760;50.000;9.194;2023-02-07T13:16:38;10.90;76.20
5476;DHT22;2760;50.000;9.194;2023-02-07T13:19:16;9.90;77.90
5476;DHT22;2760;50.000;9.194;2023-02-07T13:21:50;11.70;77.40
5476;DHT22;2760;50.000;9.194;2023-02-07T13:24:22;8.40;79.90
5476;DHT22;2760;50.000;9.194;2023-02-07T13:26:54;8.70;78.20
5476;DHT22;2760;50.000;9.194;2023-02-07T13:29:24;8.60;79.40
5476;DHT22;2760;50.000;9.194;2023-02-07T13:31:56;8.90;78.60
5476;DHT22;2760;50.000;9.194;2023-02-07T13:34:30;9.00;78.50
5476;DHT22;2760;50.000;9.194;2023-02-07T13:36:59;8.90;77.20
5476;DHT22;2760;50.000;9.194;2023-02-07T13:39:38;8.40;81.00
5476;DHT22;2760;50.000;9.194;2023-02-07T13:42:17;8.30;79.80
5476;DHT22;2760;50.000;9.194;2023-02-07T13:44:52;9.90;81.60
5476;DHT22;2760;50.000;9.194;2023-02-07T13:47:35;11.00;76.10
5476;DHT22;2760;50.000;9.194;2023-02-07T13:50:14;9.70;77.80
5476;DHT22;2760;50.000;9.194;2023-02-07T13:52:46;9.00;77.10
5476;DHT22;2760;50.000;9.194;2023-02-07T13:55:24;11.40;80.80
5476;DHT22;2760;50.000;9.194;2023-02-07T13:57:53;10.30;77.70
5476;DHT22;2760;50.000;9.194;2023-02-07T14:01:07;9.70;75.10
5476;DHT22;2760;50.000;9.194;2023-02-07T14:03:37;10.10;74.70
5476;DHT22;2760;50.000;9.194;2023-02-07T14:06:29;9.30;76.60
5476;DHT22;2760;50.000;9.194;2023-02-07T14:09:02;8.70;77.20
5476;DHT22;2760;50.000;9.194;2023-02-07T14:11:34;7.90;77.90
5476;DHT22;2760;50.000;9.194;2023-02-07T14:14:10;7.80;78.00
5476;DHT22;2760;50.000;9.194;2023-02-07T14:16:46;9.20;79.70
5476;DHT22;2760;50.000;9.194;2023-02-07T14:19:50;11.30;78.60
5476;DHT22;2760;50.000;9.194;2023-02-07T14:22:20;9.20;76.00
5476;DHT22;2760;50.000;9.194;2023-02-07T14:27:32;11.90;76.60
5476;DHT22;2760;50.000;9.194;2023-02-07T14:30:17;10.00;77.30
5476;DHT22;2760;50.000;9.194;2023-02-07T14:33:08;10.10;78.20
5476;DHT22;2760;50.000;9.194;2023-02-07T14:35:36;8.10;76.00
5476;DHT22;2760;50.000;9.194;2023-02-07T14:38:21;8.10;76.90
5476;DHT22;2760;50.000;9.194;2023-02-07T14:40:53;9.00;77.90
5476;DHT22;2760;50.000;9.194;2023-02-07T14:43:32;10.10;76.60
5476;DHT22;2760;50.000;9.194;2023-02-07T14:46:06;10.30;76.50
5476;DHT22;2760;50.000;9.194;2023-02-07T14:48:47;9.60;76.60
5476;DHT22;2760;50.000;9.194;2023-02-07T14:51:18;7.80;74.60
5476;DHT22;2760;50.000;9.194;2023-02-07T14:53:55;7.70;74.10
5476;DHT22;2760;50.000;9.194;2023-02-07T14:56:36;10.30;76.20
5476;DHT22;2760;50.000;9.194;2023-02-07T14:59:08;10.10;76.30
5476;DHT22;2760;50.000;9.194;2023-02-07T15:01:38;7.90;74.40
5476;DHT22;2760;50.000;9.194;2023-02-07T15:04:07;7.70;74.30
5476;DHT22;2760;50.000;9.194;2023-02-07T15:06:38;9.10;77.80
5476;DHT22;2760;50.000;9.194;2023-02-07T15:09:15;10.00;76.10
5476;DHT22;2760;50.000;9.194;2023-02-07T15:11:42;6.50;73.30
5476;DHT22;2760;50.000;9.194;2023-02-07T15:14:20;9.10;74.30
5476;DHT22;2760;50.000;9.194;2023-02-07T15:17:04;7.70;72.20
5476;DHT22;2760;50.000;9.194;2023-02-07T15:19:34;7.70;74.00
5476;DHT22;2760;50.000;9.194;2023-02-07T15:22:03;9.70;76.50
5476;DHT22;2760;50.000;9.194;2023-02-07T15:24:34;7.00;75.70
5476;DHT22;2760;50.000;9.194;2023-02-07T15:27:04;7.80;76.30
5476;DHT22;2760;50.000;9.194;2023-02-07T15:29:34;8.80;77.10
5476;DHT22;2760;50.000;9.194;2023-02-07T15:32:19;7.20;74.00
5476;DHT22;2760;50.000;9.194;2023-02-07T15:34:47;7.20;74.90
5476;DHT22;2760;50.000;9.194;2023-02-07T15:37:19;7.20;76.00
5476;DHT22;2760;50.000;9.194;2023-02-07T15:39:55;8.70;77.30
5476;DHT22;2760;50.000;9.194;2023-02-07T15:42:22;8.20;78.50
5476;DHT22;2760;50.000;9.194;2023-02-07T15:44:51;8.70;78.50
5476;DHT22;2760;50.000;9.194;2023-02-07T15:47:38;8.60;78.90
5476;DHT22;2760;50.000;9.194;2023-02-07T15:50:15;8.20;76.70
5476;DHT22;2760;50.000;9.194;2023-02-07T15:52:49;6.80;76.90
5476;DHT22;2760;50.000;9.194;2023-02-07T15:55:23;8.00;79.00
5476;DHT22;2760;50.000;9.194;2023-02-07T15:57:53;8.20;79.30
5476;DHT22;2760;50.000;9.194;2023-02-07T16:00:23;7.90;81.20
5476;DHT22;2760;50.000;9.194;2023-02-07T16:02:57;6.30;78.30
5476;DHT22;2760;50.000;9.194;2023-02-07T16:05:27;6.30;79.60
5476;DHT22;2760;50.000;9.194;2023-02-07T16:07:55;6.40;80.60
5476;DHT22;2760;50.000;9.194;2023-02-07T16:10:35;8.30;83.10
5476;DHT22;2760;50.000;9.194;2023-02-07T16:13:10;6.10;82.50
5476;DHT22;2760;50.000;9.194;2023-02-07T16:15:51;8.20;84.40
5476;DHT22;2760;50.000;9.194;2023-02-07T16:18:38;5.90;83.20
5476;DHT22;2760;50.000;9.194;2023-02-07T16:21:15;5.80;85.30
5476;DHT22;2760;50.000;9.194;2023-02-07T16:23:44;5.60;85.60
5476;DHT22;2760;50.000;9.194;2023-02-07T16:26:13;3.80;86.40
5476;DHT22;2760;50.000;9.194;2023-02-07T16:28:41;5.20;87.30
5476;DHT22;2760;50.000;9.194;2023-02-07T16:31:08;7.40;89.20
5476;DHT22;2760;50.000;9.194;2023-02-07T16:33:36;7.20;89.70
5476;DHT22;2760;50.000;9.194;2023-02-07T16:36:04;5.00;87.40
5476;DHT22;2760;50.000;9.194;2023-02-07T16:38:31;4.90;88.30
5476;DHT22;2760;50.000;9.194;2023-02-07T16:40:58;4.70;88.90
5476;DHT22;2760;50.000;9.194;2023-02-07T16:43:34;4.50;90.10
5476;DHT22;2760;50.000;9.194;2023-02-07T16:46:04;4.40;90.20
5476;DHT22;2760;50.000;9.194;2023-02-07T16:48:31;5.50;91.30
5476;DHT22;2760;50.000;9.194;2023-02-07T16:51:00;4.00;91.90
5476;DHT22;2760;50.000;9.194;2023-02-07T16:53:27;5.60;93.50
5476;DHT22;2760;50.000;9.194;2023-02-07T16:55:56;3.60;93.60
5476;DHT22;2760;50.000;9.194;2023-02-07T16:58:27;3.50;94.10
5476;DHT22;2760;50.000;9.194;2023-02-07T17:00:55;3.50;93.40
5476;DHT22;2760;50.000;9.194;2023-02-07T17:03:27;5.30;94.40
5476;DHT22;2760;50.000;9.194;2023-02-07T17:05:54;3.80;94.10
5476;DHT22;2760;50.000;9.194;2023-02-07T17:08:27;3.10;93.90
5476;DHT22;2760;50.000;9.194;2023-02-07T17:10:59;4.30;94.50